sensor_id;sensor_type;location;lat;lon;timestamp;P1;durP1;ratioP1;P2;durP2;ratioP2
30307;SDS011;17114;52.314;8.910;2023-02-18T00:01:12;9.45;;;2.08;;
30307;SDS011;17114;52.314;8.910;2023-02-18T00:03:41;14.50;;;2.40;;
30307;SDS011;17114;52.314;8.910;2023-02-18T00:06:16;11.80;;;2.15;;
30307;SDS011;17114;52.314;8.910;2023-02-18T00:08:48;9.23;;;2.22;;
30307;SDS011;17114;52.314;8.910;2023-02-18T00:11:16;13.27;;;2.85;;
30307;SDS011;17114;52.314;8.910;2023-02-18T00:13:52;10.77;;;2.30;;
30307;SDS011;17114;52.314;8.910;2023-02-18T00:16:20;12.27;;;2.47;;
30307;SDS011;17114;52.314;8.910;2023-02-18T00:18:48;10.02;;;2.30;;
30307;SDS011;17114;52.314;8.910;2023-02-18T00:21:16;19.63;;;2.28;;
30307;SDS011;17114;52.314;8.910;2023-02-18T00:23:43;12.18;;;2.35;;
30307;SDS011;17114;52.314;8.910;2023-02-18T00:26:14;13.73;;;2.20;;
30307;SDS011;17114;52.314;8.910;2023-02-18T00:28:42;15.77;;;2.70;;
30307;SDS011;17114;52.314;8.910;2023-02-18T00:31:10;13.82;;;2.28;;
30307;SDS011;17114;52.314;8.910;2023-02-18T00:33:39;9.68;;;2.13;;
30307;SDS011;17114;52.314;8.910;2023-02-18T00:36:09;9.30;;;2.22;;
30307;SDS011;17114;52.314;8.910;2023-02-18T00:38:37;8.77;;;2.47;;
30307;SDS011;17114;52.314;8.910;2023-02-18T00:41:05;12.13;;;2.45;;
30307;SDS011;17114;52.314;8.910;2023-02-18T00:43:32;18.58;;;2.63;;
30307;SDS011;17114;52.314;8.910;2023-02-18T00:45:59;12.68;;;2.58;;
30307;SDS011;17114;52.314;8.910;2023-02-18T00:48:27;12.82;;;2.50;;
30307;SDS011;17114;52.314;8.910;2023-02-18T00:50:54;15.00;;;2.63;;
30307;SDS011;17114;52.314;8.910;2023-02-18T00:53:21;11.93;;;2.17;;
30307;SDS011;17114;52.314;8.910;2023-02-18T00:55:48;12.85;;;2.75;;
30307;SDS011;17114;52.314;8.910;2023-02-18T00:58:15;16.10;;;3.95;;
30307;SDS011;17114;52.314;8.910;2023-02-18T01:00:43;16.30;;;3.67;;
30307;SDS011;17114;52.314;8.910;2023-02-18T01:03:11;14.68;;;2.80;;
30307;SDS011;17114;52.314;8.910;2023-02-18T01:05:38;10.65;;;2.85;;
30307;SDS011;17114;52.314;8.910;2023-02-18T01:08:06;13.02;;;3.00;;
30307;SDS011;17114;52.314;8.910;2023-02-18T01:10:34;14.75;;;3.08;;
30307;SDS011;17114;52.314;8.910;2023-02-18T01:13:02;15.35;;;3.15;;
30307;SDS011;17114;52.314;8.910;2023-02-18T01:15:32;16.63;;;3.08;;
30307;SDS011;17114;52.314;8.910;2023-02-18T01:17:59;15.50;;;2.72;;
30307;SDS011;17114;52.314;8.910;2023-02-18T01:20:26;13.55;;;3.28;;
30307;SDS011;17114;52.314;8.910;2023-02-18T01:22:53;15.60;;;3.08;;
30307;SDS011;17114;52.314;8.910;2023-02-18T01:25:20;11.20;;;2.47;;
30307;SDS011;17114;52.314;8.910;2023-02-18T01:27:47;16.55;;;3.00;;
30307;SDS011;17114;52.314;8.910;2023-02-18T01:30:15;16.58;;;3.28;;
30307;SDS011;17114;52.314;8.910;2023-02-18T01:32:43;14.50;;;2.95;;
30307;SDS011;17114;52.314;8.910;2023-02-18T01:35:11;16.40;;;3.35;;
30307;SDS011;17114;52.314;8.910;2023-02-18T01:37:40;19.27;;;3.53;;
30307;SDS011;17114;52.314;8.910;2023-02-18T01:40:08;16.77;;;3.97;;
30307;SDS011;17114;52.314;8.910;2023-02-18T01:42:37;21.08;;;3.92;;
30307;SDS011;17114;52.314;8.910;2023-02-18T01:45:35;18.60;;;5.32;;
30307;SDS011;17114;52.314;8.910;2023-02-18T01:48:22;22.85;;;4.57;;
30307;SDS011;17114;52.314;8.910;2023-02-18T01:50:56;16.70;;;4.95;;
30307;SDS011;17114;52.314;8.910;2023-02-18T01:53:38;23.45;;;6.45;;
30307;SDS011;17114;52.314;8.910;2023-02-18T01:56:14;25.42;;;6.32;;
30307;SDS011;17114;52.314;8.910;2023-02-18T01:58:48;25.50;;;7.38;;
30307;SDS011;17114;52.314;8.910;2023-02-18T02:01:15;32.97;;;9.38;;
30307;SDS011;17114;52.314;8.910;2023-02-18T02:03:42;23.98;;;8.00;;
30307;SDS011;17114;52.314;8.910;2023-02-18T02:06:13;26.52;;;9.32;;
30307;SDS011;17114;52.314;8.910;2023-02-18T02:08:43;22.05;;;8.63;;
30307;SDS011;17114;52.314;8.910;2023-02-18T02:11:28;21.30;;;9.55;;
30307;SDS011;17114;52.314;8.910;2023-02-18T02:16:35;29.20;;;11.35;;
30307;SDS011;17114;52.314;8.910;2023-02-18T02:30:41;35.15;;;14.65;;
30307;SDS011;17114;52.314;8.910;2023-02-18T02:36:42;41.22;;;17.50;;
30307;SDS011;17114;52.314;8.910;2023-02-18T02:39:59;40.20;;;18.73;;
30307;SDS011;17114;52.314;8.910;2023-02-18T02:42:48;45.40;;;19.65;;
30307;SDS011;17114;52.314;8.910;2023-02-18T02:51:08;45.03;;;21.08;;
30307;SDS011;17114;52.314;8.910;2023-02-18T02:53:36;40.58;;;20.38;;
30307;SDS011;17114;52.314;8.910;2023-02-18T02:56:14;43.22;;;20.45;;
30307;SDS011;17114;52.314;8.910;2023-02-18T02:58:43;48.90;;;21.17;;
30307;SDS011;17114;52.314;8.910;2023-02-18T03:12:00;51.22;;;24.13;;
30307;SDS011;17114;52.314;8.910;2023-02-18T03:17:40;50.70;;;24.40;;
30307;SDS011;17114;52.314;8.910;2023-02-18T03:20:33;48.22;;;24.58;;
30307;SDS011;17114;52.314;8.910;2023-02-18T03:23:03;51.97;;;26.50;;
30307;SDS011;17114;52.314;8.910;2023-02-18T03:25:37;59.97;;;28.35;;
30307;SDS011;17114;52.314;8.910;2023-02-18T03:28:13;51.70;;;26.63;;
30307;SDS011;17114;52.314;8.910;2023-02-18T03:30:47;58.13;;;27.75;;
30307;SDS011;17114;52.314;8.910;2023-02-18T03:33:19;58.67;;;27.17;;
30307;SDS011;17114;52.314;8.910;2023-02-18T03:35:52;63.40;;;27.52;;
30307;SDS011;17114;52.314;8.910;2023-02-18T03:38:38;56.38;;;29.38;;
30307;SDS011;17114;52.314;8.910;2023-02-18T03:41:24;60.67;;;30.13;;
30307;SDS011;17114;52.314;8.910;2023-02-18T03:43:52;58.25;;;28.95;;
30307;SDS011;17114;52.314;8.910;2023-02-18T03:46:21;63.03;;;30.52;;
30307;SDS011;17114;52.314;8.910;2023-02-18T03:48:48;68.95;;;31.92;;
30307;SDS011;17114;52.314;8.910;2023-02-18T03:51:15;57.53;;;29.95;;
30307;SDS011;17114;52.314;8.910;2023-02-18T03:53:42;60.53;;;30.15;;
30307;SDS011;17114;52.314;8.910;2023-02-18T03:56:12;61.17;;;30.42;;
30307;SDS011;17114;52.314;8.910;2023-02-18T03:58:39;65.85;;;30.60;;
30307;SDS011;17114;52.314;8.910;2023-02-18T04:01:06;64.85;;;32.10;;
30307;SDS011;17114;52.314;8.910;2023-02-18T04:03:33;72.85;;;31.70;;
30307;SDS011;17114;52.314;8.910;2023-02-18T04:06:00;64.88;;;32.85;;
30307;SDS011;17114;52.314;8.910;2023-02-18T04:08:27;74.25;;;33.85;;
30307;SDS011;17114;52.314;8.910;2023-02-18T04:10:54;67.72;;;34.45;;
30307;SDS011;17114;52.314;8.910;2023-02-18T04:13:21;62.67;;;32.40;;
30307;SDS011;17114;52.314;8.910;2023-02-18T04:15:49;72.15;;;33.88;;
30307;SDS011;17114;52.314;8.910;2023-02-18T04:18:17;69.05;;;34.35;;
30307;SDS011;17114;52.314;8.910;2023-02-18T04:20:44;71.80;;;35.03;;
30307;SDS011;17114;52.314;8.910;2023-02-18T04:23:11;66.47;;;33.70;;
30307;SDS011;17114;52.314;8.910;2023-02-18T04:25:39;84.90;;;34.83;;
30307;SDS011;17114;52.314;8.910;2023-02-18T04:28:06;71.47;;;34.25;;
30307;SDS011;17114;52.314;8.910;2023-02-18T04:30:33;75.22;;;34.20;;
30307;SDS011;17114;52.314;8.910;2023-02-18T04:33:00;68.78;;;33.60;;
30307;SDS011;17114;52.314;8.910;2023-02-18T04:35:27;76.43;;;36.50;;
30307;SDS011;17114;52.314;8.910;2023-02-18T04:37:54;77.13;;;36.15;;
30307;SDS011;17114;52.314;8.910;2023-02-18T04:40:21;79.95;;;37.53;;
30307;SDS011;17114;52.314;8.910;2023-02-18T04:42:50;74.18;;;35.78;;
30307;SDS011;17114;52.314;8.910;2023-02-18T04:45:17;81.90;;;38.28;;
30307;SDS011;17114;52.314;8.910;2023-02-18T04:47:44;79.57;;;37.78;;
30307;SDS011;17114;52.314;8.910;2023-02-18T04:50:12;74.80;;;36.95;;
30307;SDS011;17114;52.314;8.910;2023-02-18T04:52:39;73.95;;;36.13;;
30307;SDS011;17114;52.314;8.910;2023-02-18T04:55:06;73.10;;;34.45;;
30307;SDS011;17114;52.314;8.910;2023-02-18T04:57:34;73.88;;;34.67;;
30307;SDS011;17114;52.314;8.910;2023-02-18T05:00:02;77.00;;;33.08;;
30307;SDS011;17114;52.314;8.910;2023-02-18T05:02:33;79.90;;;34.45;;
30307;SDS011;17114;52.314;8.910;2023-02-18T05:05:00;73.72;;;34.40;;
30307;SDS011;17114;52.314;8.910;2023-02-18T05:07:28;82.20;;;34.67;;
30307;SDS011;17114;52.314;8.910;2023-02-18T05:09:55;73.68;;;34.65;;
30307;SDS011;17114;52.314;8.910;2023-02-18T05:12:22;76.90;;;35.20;;
30307;SDS011;17114;52.314;8.910;2023-02-18T05:14:51;73.38;;;34.00;;
30307;SDS011;17114;52.314;8.910;2023-02-18T05:17:19;74.85;;;35.42;;
30307;SDS011;17114;52.314;8.910;2023-02-18T05:19:48;72.53;;;34.10;;
30307;SDS011;17114;52.314;8.910;2023-02-18T05:22:15;79.93;;;34.72;;
30307;SDS011;17114;52.314;8.910;2023-02-18T05:24:47;76.10;;;35.58;;
30307;SDS011;17114;52.314;8.910;2023-02-18T05:27:14;82.22;;;36.35;;
30307;SDS011;17114;52.314;8.910;2023-02-18T05:29:41;72.50;;;34.03;;
30307;SDS011;17114;52.314;8.910;2023-02-18T05:32:09;82.53;;;36.05;;
30307;SDS011;17114;52.314;8.910;2023-02-18T05:34:41;78.95;;;34.42;;
30307;SDS011;17114;52.314;8.910;2023-02-18T05:37:12;74.90;;;33.65;;
30307;SDS011;17114;52.314;8.910;2023-02-18T05:39:40;81.38;;;34.90;;
30307;SDS011;17114;52.314;8.910;2023-02-18T05:42:07;77.72;;;33.60;;
30307;SDS011;17114;52.314;8.910;2023-02-18T05:44:34;81.53;;;37.40;;
30307;SDS011;17114;52.314;8.910;2023-02-18T05:47:01;76.22;;;34.28;;
30307;SDS011;17114;52.314;8.910;2023-02-18T05:49:32;79.53;;;34.67;;
30307;SDS011;17114;52.314;8.910;2023-02-18T05:52:00;81.05;;;33.30;;
30307;SDS011;17114;52.314;8.910;2023-02-18T05:54:27;75.63;;;32.80;;
30307;SDS011;17114;52.314;8.910;2023-02-18T05:56:54;66.15;;;31.10;;
30307;SDS011;17114;52.314;8.910;2023-02-18T05:59:21;68.55;;;31.60;;
30307;SDS011;17114;52.314;8.910;2023-02-18T06:01:49;61.15;;;27.98;;
30307;SDS011;17114;52.314;8.910;2023-02-18T06:04:16;70.13;;;30.85;;
30307;SDS011;17114;52.314;8.910;2023-02-18T06:06:42;60.75;;;27.20;;
30307;SDS011;17114;52.314;8.910;2023-02-18T06:09:09;53.33;;;24.95;;
30307;SDS011;17114;52.314;8.910;2023-02-18T06:11:36;52.00;;;24.10;;
30307;SDS011;17114;52.314;8.910;2023-02-18T06:14:03;48.40;;;21.98;;
30307;SDS011;17114;52.314;8.910;2023-02-18T06:16:30;42.83;;;19.33;;
30307;SDS011;17114;52.314;8.910;2023-02-18T06:18:57;43.35;;;20.02;;
30307;SDS011;17114;52.314;8.910;2023-02-18T06:21:24;36.47;;;16.42;;
30307;SDS011;17114;52.314;8.910;2023-02-18T06:23:51;35.08;;;17.02;;
30307;SDS011;17114;52.314;8.910;2023-02-18T06:26:18;32.13;;;15.48;;
30307;SDS011;17114;52.314;8.910;2023-02-18T06:28:45;32.65;;;14.93;;
30307;SDS011;17114;52.314;8.910;2023-02-18T06:31:11;32.30;;;14.98;;
30307;SDS011;17114;52.314;8.910;2023-02-18T06:33:39;28.98;;;13.90;;
30307;SDS011;17114;52.314;8.910;2023-02-18T06:36:07;27.35;;;12.68;;
30307;SDS011;17114;52.314;8.910;2023-02-18T06:38:38;28.58;;;13.23;;
30307;SDS011;17114;52.314;8.910;2023-02-18T06:41:06;27.33;;;13.27;;
30307;SDS011;17114;52.314;8.910;2023-02-18T06:43:33;25.23;;;12.38;;
30307;SDS011;17114;52.314;8.910;2023-02-18T06:46:01;23.70;;;12.15;;
30307;SDS011;17114;52.314;8.910;2023-02-18T06:48:28;29.40;;;14.10;;
30307;SDS011;17114;52.314;8.910;2023-02-18T06:50:56;25.25;;;13.30;;
30307;SDS011;17114;52.314;8.910;2023-02-18T06:53:22;26.25;;;13.52;;
30307;SDS011;17114;52.314;8.910;2023-02-18T06:55:50;28.60;;;13.75;;
30307;SDS011;17114;52.314;8.910;2023-02-18T06:58:17;34.97;;;14.32;;
30307;SDS011;17114;52.314;8.910;2023-02-18T07:00:44;32.63;;;15.65;;
30307;SDS011;17114;52.314;8.910;2023-02-18T07:03:14;30.10;;;14.18;;
30307;SDS011;17114;52.314;8.910;2023-02-18T07:05:41;30.92;;;14.85;;
30307;SDS011;17114;52.314;8.910;2023-02-18T07:08:08;32.80;;;14.93;;
30307;SDS011;17114;52.314;8.910;2023-02-18T07:10:35;37.05;;;16.17;;
30307;SDS011;17114;52.314;8.910;2023-02-18T07:13:02;35.47;;;16.27;;
30307;SDS011;17114;52.314;8.910;2023-02-18T07:15:29;35.47;;;17.60;;
30307;SDS011;17114;52.314;8.910;2023-02-18T07:17:57;32.75;;;16.38;;
30307;SDS011;17114;52.314;8.910;2023-02-18T07:20:24;34.97;;;15.70;;
30307;SDS011;17114;52.314;8.910;2023-02-18T07:22:52;37.00;;;16.17;;
30307;SDS011;17114;52.314;8.910;2023-02-18T07:25:19;31.88;;;14.98;;
30307;SDS011;17114;52.314;8.910;2023-02-18T07:27:48;31.33;;;14.73;;
30307;SDS011;17114;52.314;8.910;2023-02-18T07:30:16;29.02;;;14.50;;
30307;SDS011;17114;52.314;8.910;2023-02-18T07:32:43;30.15;;;14.52;;
30307;SDS011;17114;52.314;8.910;2023-02-18T07:35:12;25.90;;;13.48;;
30307;SDS011;17114;52.314;8.910;2023-02-18T07:37:46;25.38;;;12.57;;
30307;SDS011;17114;52.314;8.910;2023-02-18T07:40:16;18.40;;;9.00;;
30307;SDS011;17114;52.314;8.910;2023-02-18T07:42:44;20.88;;;10.60;;
30307;SDS011;17114;52.314;8.910;2023-02-18T07:45:11;21.77;;;10.48;;
30307;SDS011;17114;52.314;8.910;2023-02-18T07:47:39;19.75;;;10.35;;
30307;SDS011;17114;52.314;8.910;2023-02-18T07:50:07;18.20;;;9.48;;
30307;SDS011;17114;52.314;8.910;2023-02-18T07:52:35;14.50;;;8.75;;
30307;SDS011;17114;52.314;8.910;2023-02-18T07:55:02;15.45;;;8.63;;
30307;SDS011;17114;52.314;8.910;2023-02-18T07:57:29;16.98;;;8.90;;
30307;SDS011;17114;52.314;8.910;2023-02-18T07:59:56;15.98;;;9.18;;
30307;SDS011;17114;52.314;8.910;2023-02-18T08:02:23;14.35;;;8.75;;
30307;SDS011;17114;52.314;8.910;2023-02-18T08:04:50;15.95;;;9.18;;
30307;SDS011;17114;52.314;8.910;2023-02-18T08:07:17;13.60;;;8.18;;
30307;SDS011;17114;52.314;8.910;2023-02-18T08:09:46;12.52;;;7.93;;
30307;SDS011;17114;52.314;8.910;2023-02-18T08:12:14;15.80;;;8.57;;
30307;SDS011;17114;52.314;8.910;2023-02-18T08:14:41;12.70;;;7.40;;
30307;SDS011;17114;52.314;8.910;2023-02-18T08:17:08;12.13;;;7.57;;
30307;SDS011;17114;52.314;8.910;2023-02-18T08:19:34;13.75;;;7.65;;
30307;SDS011;17114;52.314;8.910;2023-02-18T08:22:01;9.90;;;6.65;;
30307;SDS011;17114;52.314;8.910;2023-02-18T08:24:29;9.32;;;6.20;;
30307;SDS011;17114;52.314;8.910;2023-02-18T08:26:55;9.25;;;5.75;;
30307;SDS011;17114;52.314;8.910;2023-02-18T08:29:26;8.38;;;5.68;;
30307;SDS011;17114;52.314;8.910;2023-02-18T08:31:54;9.32;;;5.30;;
30307;SDS011;17114;52.314;8.910;2023-02-18T08:34:23;8.45;;;5.70;;
30307;SDS011;17114;52.314;8.910;2023-02-18T08:36:50;12.48;;;8.73;;
30307;SDS011;17114;52.314;8.910;2023-02-18T08:39:17;6.47;;;4.47;;
30307;SDS011;17114;52.314;8.910;2023-02-18T08:41:44;6.22;;;3.95;;
30307;SDS011;17114;52.314;8.910;2023-02-18T08:44:11;5.35;;;3.72;;
30307;SDS011;17114;52.314;8.910;2023-02-18T08:46:37;6.28;;;3.95;;
30307;SDS011;17114;52.314;8.910;2023-02-18T08:49:04;6.32;;;3.30;;
30307;SDS011;17114;52.314;8.910;2023-02-18T08:51:31;5.38;;;3.75;;
30307;SDS011;17114;52.314;8.910;2023-02-18T08:53:58;5.57;;;4.43;;
30307;SDS011;17114;52.314;8.910;2023-02-18T08:56:25;5.63;;;3.10;;
30307;SDS011;17114;52.314;8.910;2023-02-18T08:58:52;4.18;;;2.70;;
30307;SDS011;17114;52.314;8.910;2023-02-18T09:01:19;4.00;;;2.72;;
30307;SDS011;17114;52.314;8.910;2023-02-18T09:03:46;3.38;;;2.40;;
30307;SDS011;17114;52.314;8.910;2023-02-18T09:06:14;3.03;;;2.05;;
30307;SDS011;17114;52.314;8.910;2023-02-18T09:08:40;2.60;;;1.70;;
30307;SDS011;17114;52.314;8.910;2023-02-18T09:11:07;2.15;;;1.92;;
30307;SDS011;17114;52.314;8.910;2023-02-18T09:13:36;2.60;;;1.90;;
30307;SDS011;17114;52.314;8.910;2023-02-18T09:16:07;2.53;;;1.73;;
30307;SDS011;17114;52.314;8.910;2023-02-18T09:18:37;1.90;;;1.65;;
30307;SDS011;17114;52.314;8.910;2023-02-18T09:21:05;1.60;;;1.30;;
30307;SDS011;17114;52.314;8.910;2023-02-18T09:23:35;2.42;;;1.52;;
30307;SDS011;17114;52.314;8.910;2023-02-18T09:26:06;2.03;;;1.83;;
30307;SDS011;17114;52.314;8.910;2023-02-18T09:28:35;2.28;;;1.70;;
30307;SDS011;17114;52.314;8.910;2023-02-18T09:31:05;2.17;;;1.60;;
30307;SDS011;17114;52.314;8.910;2023-02-18T09:33:35;2.42;;;1.48;;
30307;SDS011;17114;52.314;8.910;2023-02-18T09:36:03;2.72;;;1.50;;
30307;SDS011;17114;52.314;8.910;2023-02-18T09:38:30;1.25;;;1.10;;
30307;SDS011;17114;52.314;8.910;2023-02-18T09:40:57;1.50;;;1.30;;
30307;SDS011;17114;52.314;8.910;2023-02-18T09:43:33;1.27;;;1.00;;
30307;SDS011;17114;52.314;8.910;2023-02-18T09:46:14;1.20;;;1.10;;
30307;SDS011;17114;52.314;8.910;2023-02-18T09:48:51;1.05;;;0.93;;
30307;SDS011;17114;52.314;8.910;2023-02-18T09:51:19;1.65;;;1.30;;
30307;SDS011;17114;52.314;8.910;2023-02-18T09:53:45;1.50;;;1.27;;
30307;SDS011;17114;52.314;8.910;2023-02-18T09:56:14;2.35;;;1.50;;
30307;SDS011;17114;52.314;8.910;2023-02-18T09:58:48;2.88;;;2.03;;
30307;SDS011;17114;52.314;8.910;2023-02-18T10:01:36;2.95;;;1.50;;
30307;SDS011;17114;52.314;8.910;2023-02-18T10:04:14;1.75;;;1.42;;
30307;SDS011;17114;52.314;8.910;2023-02-18T10:06:46;1.60;;;1.45;;
30307;SDS011;17114;52.314;8.910;2023-02-18T10:11:42;1.77;;;1.50;;
30307;SDS011;17114;52.314;8.910;2023-02-18T10:14:14;5.28;;;2.92;;
30307;SDS011;17114;52.314;8.910;2023-02-18T10:16:42;1.55;;;1.45;;
30307;SDS011;17114;52.314;8.910;2023-02-18T10:21:59;2.30;;;1.75;;
30307;SDS011;17114;52.314;8.910;2023-02-18T10:24:32;1.77;;;1.55;;
30307;SDS011;17114;52.314;8.910;2023-02-18T10:27:06;2.30;;;1.90;;
30307;SDS011;17114;52.314;8.910;2023-02-18T10:29:34;2.28;;;1.35;;
30307;SDS011;17114;52.314;8.910;2023-02-18T10:34:41;3.78;;;1.17;;
30307;SDS011;17114;52.314;8.910;2023-02-18T10:42:53;1.52;;;1.38;;
30307;SDS011;17114;52.314;8.910;2023-02-18T10:50:53;1.70;;;1.27;;
30307;SDS011;17114;52.314;8.910;2023-02-18T10:53:25;2.33;;;1.70;;
30307;SDS011;17114;52.314;8.910;2023-02-18T10:56:00;2.17;;;1.70;;
30307;SDS011;17114;52.314;8.910;2023-02-18T10:58:32;1.67;;;1.50;;
30307;SDS011;17114;52.314;8.910;2023-02-18T11:01:15;2.75;;;1.50;;
30307;SDS011;17114;52.314;8.910;2023-02-18T11:03:49;1.60;;;1.35;;
30307;SDS011;17114;52.314;8.910;2023-02-18T11:06:21;2.92;;;1.50;;
30307;SDS011;17114;52.314;8.910;2023-02-18T11:08:55;1.73;;;1.50;;
30307;SDS011;17114;52.314;8.910;2023-02-18T11:11:24;2.95;;;1.60;;
30307;SDS011;17114;52.314;8.910;2023-02-18T11:14:00;4.15;;;1.55;;
30307;SDS011;17114;52.314;8.910;2023-02-18T11:16:36;2.90;;;1.80;;
30307;SDS011;17114;52.314;8.910;2023-02-18T11:22:34;1.15;;;0.95;;
30307;SDS011;17114;52.314;8.910;2023-02-18T11:25:01;1.92;;;1.50;;
30307;SDS011;17114;52.314;8.910;2023-02-18T11:27:42;2.85;;;1.70;;
30307;SDS011;17114;52.314;8.910;2023-02-18T11:30:30;3.50;;;2.30;;
30307;SDS011;17114;52.314;8.910;2023-02-18T11:36:21;4.40;;;2.38;;
30307;SDS011;17114;52.314;8.910;2023-02-18T11:41:33;8.70;;;3.25;;
30307;SDS011;17114;52.314;8.910;2023-02-18T11:44:06;3.85;;;2.53;;
30307;SDS011;17114;52.314;8.910;2023-02-18T11:46:58;5.05;;;2.63;;
30307;SDS011;17114;52.314;8.910;2023-02-18T11:49:31;5.18;;;3.00;;
30307;SDS011;17114;52.314;8.910;2023-02-18T11:52:27;4.88;;;2.20;;
30307;SDS011;17114;52.314;8.910;2023-02-18T11:55:06;3.85;;;2.35;;
30307;SDS011;17114;52.314;8.910;2023-02-18T11:57:34;3.30;;;2.50;;
30307;SDS011;17114;52.314;8.910;2023-02-18T12:00:04;4.05;;;2.33;;
30307;SDS011;17114;52.314;8.910;2023-02-18T12:02:51;6.35;;;2.60;;
30307;SDS011;17114;52.314;8.910;2023-02-18T12:05:22;4.10;;;2.20;;
30307;SDS011;17114;52.314;8.910;2023-02-18T12:07:53;3.60;;;1.92;;
30307;SDS011;17114;52.314;8.910;2023-02-18T12:10:25;3.35;;;1.90;;
30307;SDS011;17114;52.314;8.910;2023-02-18T12:13:05;4.70;;;2.17;;
30307;SDS011;17114;52.314;8.910;2023-02-18T12:18:48;4.88;;;2.20;;
30307;SDS011;17114;52.314;8.910;2023-02-18T12:21:34;2.77;;;1.90;;
30307;SDS011;17114;52.314;8.910;2023-02-18T12:27:33;3.22;;;2.10;;
30307;SDS011;17114;52.314;8.910;2023-02-18T12:52:15;4.05;;;2.90;;
30307;SDS011;17114;52.314;8.910;2023-02-18T12:58:22;4.57;;;2.65;;
30307;SDS011;17114;52.314;8.910;2023-02-18T13:14:17;6.45;;;3.40;;
30307;SDS011;17114;52.314;8.910;2023-02-18T13:16:46;6.78;;;3.67;;
30307;SDS011;17114;52.314;8.910;2023-02-18T13:19:26;5.50;;;3.63;;
30307;SDS011;17114;52.314;8.910;2023-02-18T13:21:58;6.80;;;3.70;;
30307;SDS011;17114;52.314;8.910;2023-02-18T13:24:33;7.25;;;3.75;;
30307;SDS011;17114;52.314;8.910;2023-02-18T13:27:20;10.27;;;3.83;;
30307;SDS011;17114;52.314;8.910;2023-02-18T13:33:10;9.43;;;3.83;;
30307;SDS011;17114;52.314;8.910;2023-02-18T13:36:07;5.15;;;3.60;;
30307;SDS011;17114;52.314;8.910;2023-02-18T13:38:57;6.13;;;3.72;;
30307;SDS011;17114;52.314;8.910;2023-02-18T13:41:26;7.13;;;3.30;;
30307;SDS011;17114;52.314;8.910;2023-02-18T13:43:53;6.18;;;4.03;;
30307;SDS011;17114;52.314;8.910;2023-02-18T13:46:20;7.35;;;4.35;;
30307;SDS011;17114;52.314;8.910;2023-02-18T13:51:29;6.72;;;4.30;;
30307;SDS011;17114;52.314;8.910;2023-02-18T13:54:04;7.65;;;4.25;;
30307;SDS011;17114;52.314;8.910;2023-02-18T13:56:44;8.85;;;3.75;;
30307;SDS011;17114;52.314;8.910;2023-02-18T13:59:21;6.07;;;4.07;;
30307;SDS011;17114;52.314;8.910;2023-02-18T14:10:09;10.50;;;4.43;;
30307;SDS011;17114;52.314;8.910;2023-02-18T14:13:01;8.20;;;4.38;;
30307;SDS011;17114;52.314;8.910;2023-02-18T14:15:56;7.57;;;4.47;;
30307;SDS011;17114;52.314;8.910;2023-02-18T14:18:30;11.02;;;5.25;;
30307;SDS011;17114;52.314;8.910;2023-02-18T14:21:34;11.05;;;5.32;;
30307;SDS011;17114;52.314;8.910;2023-02-18T14:24:02;12.48;;;5.35;;
30307;SDS011;17114;52.314;8.910;2023-02-18T14:26:41;10.27;;;4.85;;
30307;SDS011;17114;52.314;8.910;2023-02-18T14:29:12;9.00;;;5.80;;
30307;SDS011;17114;52.314;8.910;2023-02-18T14:31:59;8.75;;;5.30;;
30307;SDS011;17114;52.314;8.910;2023-02-18T14:34:39;14.05;;;5.47;;
30307;SDS011;17114;52.314;8.910;2023-02-18T14:43:24;11.93;;;5.78;;
30307;SDS011;17114;52.314;8.910;2023-02-18T14:51:43;20.40;;;6.53;;
30307;SDS011;17114;52.314;8.910;2023-02-18T14:54:14;12.25;;;5.97;;
30307;SDS011;17114;52.314;8.910;2023-02-18T14:57:04;16.27;;;5.82;;
30307;SDS011;17114;52.314;8.910;2023-02-18T14:59:35;14.70;;;6.22;;
30307;SDS011;17114;52.314;8.910;2023-02-18T15:05:06;16.08;;;5.25;;
30307;SDS011;17114;52.314;8.910;2023-02-18T15:07:39;13.65;;;5.35;;
30307;SDS011;17114;52.314;8.910;2023-02-18T15:10:12;18.02;;;5.63;;
30307;SDS011;17114;52.314;8.910;2023-02-18T15:12:41;11.13;;;4.82;;
30307;SDS011;17114;52.314;8.910;2023-02-18T15:15:08;15.07;;;5.90;;
30307;SDS011;17114;52.314;8.910;2023-02-18T15:17:45;13.05;;;5.38;;
30307;SDS011;17114;52.314;8.910;2023-02-18T15:20:14;14.65;;;5.13;;
30307;SDS011;17114;52.314;8.910;2023-02-18T15:22:41;13.80;;;5.13;;
30307;SDS011;17114;52.314;8.910;2023-02-18T15:25:12;15.13;;;5.13;;
30307;SDS011;17114;52.314;8.910;2023-02-18T15:27:43;15.00;;;4.38;;
30307;SDS011;17114;52.314;8.910;2023-02-18T15:30:45;12.52;;;4.68;;
30307;SDS011;17114;52.314;8.910;2023-02-18T15:33:09;13.77;;;4.75;;
30307;SDS011;17114;52.314;8.910;2023-02-18T15:35:39;14.82;;;5.28;;
30307;SDS011;17114;52.314;8.910;2023-02-18T15:38:15;16.33;;;5.07;;
30307;SDS011;17114;52.314;8.910;2023-02-18T15:40:43;15.35;;;5.60;;
30307;SDS011;17114;52.314;8.910;2023-02-18T15:43:18;12.55;;;5.00;;
30307;SDS011;17114;52.314;8.910;2023-02-18T15:45:48;15.27;;;5.05;;
30307;SDS011;17114;52.314;8.910;2023-02-18T15:48:26;14.45;;;5.30;;
30307;SDS011;17114;52.314;8.910;2023-02-18T15:51:01;16.33;;;5.57;;
30307;SDS011;17114;52.314;8.910;2023-02-18T15:53:42;14.07;;;5.38;;
30307;SDS011;17114;52.314;8.910;2023-02-18T15:56:17;16.05;;;5.32;;
30307;SDS011;17114;52.314;8.910;2023-02-18T15:59:07;15.45;;;5.30;;
30307;SDS011;17114;52.314;8.910;2023-02-18T16:01:52;12.57;;;5.00;;
30307;SDS011;17114;52.314;8.910;2023-02-18T16:04:39;14.95;;;5.72;;
30307;SDS011;17114;52.314;8.910;2023-02-18T16:07:19;12.70;;;4.38;;
30307;SDS011;17114;52.314;8.910;2023-02-18T16:10:07;13.80;;;3.88;;
30307;SDS011;17114;52.314;8.910;2023-02-18T16:12:40;15.32;;;4.68;;
30307;SDS011;17114;52.314;8.910;2023-02-18T16:15:13;11.52;;;4.32;;
30307;SDS011;17114;52.314;8.910;2023-02-18T16:17:46;10.73;;;3.92;;
30307;SDS011;17114;52.314;8.910;2023-02-18T16:22:48;10.65;;;4.43;;
30307;SDS011;17114;52.314;8.910;2023-02-18T16:25:24;14.57;;;4.67;;
30307;SDS011;17114;52.314;8.910;2023-02-18T16:28:06;12.02;;;4.22;;
30307;SDS011;17114;52.314;8.910;2023-02-18T16:30:36;13.55;;;4.00;;
30307;SDS011;17114;52.314;8.910;2023-02-18T16:33:06;10.23;;;3.92;;
30307;SDS011;17114;52.314;8.910;2023-02-18T16:35:34;12.25;;;4.50;;
30307;SDS011;17114;52.314;8.910;2023-02-18T16:38:21;12.88;;;5.15;;
30307;SDS011;17114;52.314;8.910;2023-02-18T16:40:51;16.83;;;5.18;;
30307;SDS011;17114;52.314;8.910;2023-02-18T16:43:24;12.70;;;4.40;;
30307;SDS011;17114;52.314;8.910;2023-02-18T16:45:57;16.47;;;5.07;;
30307;SDS011;17114;52.314;8.910;2023-02-18T16:48:32;17.17;;;5.15;;
30307;SDS011;17114;52.314;8.910;2023-02-18T16:51:03;13.48;;;4.63;;
30307;SDS011;17114;52.314;8.910;2023-02-18T16:53:32;14.13;;;5.07;;
30307;SDS011;17114;52.314;8.910;2023-02-18T16:55:59;12.02;;;5.05;;
30307;SDS011;17114;52.314;8.910;2023-02-18T16:58:27;13.90;;;4.97;;
30307;SDS011;17114;52.314;8.910;2023-02-18T17:00:54;13.63;;;5.30;;
30307;SDS011;17114;52.314;8.910;2023-02-18T17:03:21;12.68;;;4.95;;
30307;SDS011;17114;52.314;8.910;2023-02-18T17:05:48;16.50;;;4.57;;
30307;SDS011;17114;52.314;8.910;2023-02-18T17:10:53;13.68;;;4.85;;
30307;SDS011;17114;52.314;8.910;2023-02-18T17:13:26;11.98;;;4.80;;
30307;SDS011;17114;52.314;8.910;2023-02-18T17:15:55;14.90;;;5.78;;
30307;SDS011;17114;52.314;8.910;2023-02-18T17:18:24;14.35;;;4.70;;
30307;SDS011;17114;52.314;8.910;2023-02-18T17:20:52;16.20;;;4.68;;
30307;SDS011;17114;52.314;8.910;2023-02-18T17:23:22;19.92;;;5.22;;